createdAt,value
2024-02-02T00:00:36.140Z,5.50
2024-02-02T00:03:04.348Z,5.40
2024-02-02T00:05:32.406Z,5.40
2024-02-02T00:08:00.363Z,5.40
2024-02-02T00:10:29.941Z,5.40
2024-02-02T00:12:58.139Z,5.40
2024-02-02T00:15:26.413Z,5.40
2024-02-02T00:17:54.523Z,5.40
2024-02-02T00:20:22.626Z,5.40
2024-02-02T00:22:52.118Z,5.30
2024-02-02T00:25:20.617Z,5.40
2024-02-02T00:27:49.980Z,5.30
2024-02-02T00:30:18.968Z,5.30
2024-02-02T00:32:47.111Z,5.30
2024-02-02T00:35:15.487Z,5.30
2024-02-02T00:37:45.386Z,5.30
2024-02-02T00:40:13.394Z,5.30
2024-02-02T00:42:42.302Z,5.40
2024-02-02T00:45:12.387Z,5.40
2024-02-02T00:47:40.378Z,5.40
2024-02-02T00:50:09.669Z,5.40
2024-02-02T00:52:37.642Z,5.30
2024-02-02T00:55:06.070Z,5.30
2024-02-02T00:57:34.122Z,5.40
2024-02-02T01:00:02.096Z,5.30
2024-02-02T01:02:32.420Z,5.30
2024-02-02T01:05:00.563Z,5.40
2024-02-02T01:07:28.849Z,5.30
2024-02-02T01:09:56.832Z,5.30
2024-02-02T01:12:25.093Z,5.40
2024-02-02T01:14:53.549Z,5.30
2024-02-02T01:17:22.194Z,5.30
2024-02-02T01:19:51.804Z,5.30
2024-02-02T01:22:19.787Z,5.30
2024-02-02T01:24:47.726Z,5.30
2024-02-02T01:27:15.941Z,5.40
2024-02-02T01:29:43.905Z,5.30
2024-02-02T01:32:11.948Z,5.30
2024-02-02T01:34:40.047Z,5.30
2024-02-02T01:37:09.522Z,5.30
2024-02-02T01:39:37.498Z,5.30
2024-02-02T01:42:05.944Z,5.30
2024-02-02T01:44:33.930Z,5.30
2024-02-02T01:47:01.981Z,5.40
2024-02-02T01:49:30.574Z,5.30
2024-02-02T01:51:59.003Z,5.30
2024-02-02T01:54:28.801Z,5.30
2024-02-02T01:56:57.115Z,5.30
2024-02-02T01:59:25.774Z,5.30
2024-02-02T02:01:54.205Z,5.20
2024-02-02T02:04:22.285Z,5.20
2024-02-02T02:06:50.392Z,5.20
2024-02-02T02:09:18.533Z,5.20
2024-02-02T02:11:48.123Z,5.20
2024-02-02T02:14:16.354Z,5.20
2024-02-02T02:16:44.541Z,5.20
2024-02-02T02:19:15.768Z,5.20
2024-02-02T02:21:45.457Z,5.20
2024-02-02T02:24:13.564Z,5.10
2024-02-02T02:26:45.692Z,5.10
2024-02-02T02:29:13.710Z,5.00
2024-02-02T02:31:41.911Z,5.00
2024-02-02T02:34:10.031Z,5.00
2024-02-02T02:36:38.097Z,5.00
2024-02-02T02:39:07.457Z,5.00
2024-02-02T02:41:35.423Z,4.90
2024-02-02T02:44:03.392Z,4.90
2024-02-02T02:46:31.452Z,4.90
2024-02-02T02:49:00.634Z,5.00
2024-02-02T02:51:28.824Z,5.00
2024-02-02T02:53:56.891Z,4.90
2024-02-02T02:56:26.213Z,5.00
2024-02-02T02:58:54.168Z,4.90
2024-02-02T03:01:22.877Z,4.90
2024-02-02T03:03:50.942Z,4.90
2024-02-02T03:06:19.068Z,4.90
2024-02-02T03:08:47.084Z,4.90
2024-02-02T03:11:15.233Z,4.80
2024-02-02T03:13:44.737Z,4.80
2024-02-02T03:16:12.971Z,4.80
2024-02-02T03:18:43.596Z,4.70
2024-02-02T03:21:12.959Z,4.80
2024-02-02T03:23:41.000Z,4.80
2024-02-02T03:26:08.956Z,4.70
2024-02-02T03:28:36.924Z,4.70
2024-02-02T03:31:06.760Z,4.70
2024-02-02T03:33:34.882Z,4.70
2024-02-02T03:36:02.972Z,4.70
2024-02-02T03:38:31.253Z,4.70
2024-02-02T03:40:59.223Z,4.60
2024-02-02T03:43:27.194Z,4.70
2024-02-02T03:45:55.151Z,4.70
2024-02-02T03:48:25.064Z,4.70
2024-02-02T03:50:53.122Z,4.60
2024-02-02T03:53:21.335Z,4.60
2024-02-02T03:55:49.309Z,4.60
2024-02-02T03:58:17.584Z,4.60
2024-02-02T04:00:46.404Z,4.60
2024-02-02T04:03:14.621Z,4.60
2024-02-02T04:05:44.144Z,4.60
2024-02-02T04:08:12.557Z,4.50
2024-02-02T04:10:40.573Z,4.50
2024-02-02T04:13:08.630Z,4.50
2024-02-02T04:15:37.094Z,4.50
2024-02-02T04:18:05.527Z,4.50
2024-02-02T04:20:33.686Z,4.50
2024-02-02T04:23:03.108Z,4.50
2024-02-02T04:25:31.295Z,4.50
2024-02-02T04:27:59.257Z,4.50
2024-02-02T04:30:30.100Z,4.50
2024-02-02T04:32:58.169Z,4.50
2024-02-02T04:35:26.163Z,4.50
2024-02-02T04:37:54.144Z,4.40
2024-02-02T04:40:23.469Z,4.50
2024-02-02T04:42:51.762Z,4.40
2024-02-02T04:45:19.958Z,4.40
2024-02-02T04:47:48.161Z,4.50
2024-02-02T04:50:16.309Z,4.40
2024-02-02T04:52:44.327Z,4.40
2024-02-02T04:55:12.372Z,4.40
2024-02-02T04:57:41.837Z,4.40
2024-02-02T05:00:11.013Z,4.40
2024-02-02T05:02:39.516Z,4.40
2024-02-02T05:05:07.783Z,4.40
2024-02-02T05:07:36.659Z,4.40
2024-02-02T05:10:05.627Z,4.40
2024-02-02T05:12:33.920Z,4.40
2024-02-02T05:15:03.358Z,4.40
2024-02-02T05:17:31.639Z,4.40
2024-02-02T05:19:59.807Z,4.40
2024-02-02T05:22:27.774Z,4.40
2024-02-02T05:24:55.853Z,4.40
2024-02-02T05:27:24.016Z,4.40
2024-02-02T05:29:52.060Z,4.40
2024-02-02T05:32:21.469Z,4.30
2024-02-02T05:34:49.484Z,4.40
2024-02-02T05:37:19.098Z,4.40
2024-02-02T05:39:47.067Z,4.40
2024-02-02T05:42:15.691Z,4.40
2024-02-02T05:44:43.865Z,4.30
2024-02-02T05:47:11.806Z,4.30
2024-02-02T05:49:41.206Z,4.40
2024-02-02T05:52:10.364Z,4.40
2024-02-02T05:54:38.759Z,4.40
2024-02-02T05:57:06.757Z,4.40
2024-02-02T05:59:34.722Z,4.40
2024-02-02T06:02:02.676Z,4.40
2024-02-02T06:04:30.987Z,4.40
2024-02-02T06:07:00.489Z,4.40
2024-02-02T06:09:28.568Z,4.40
2024-02-02T06:11:56.684Z,4.40
2024-02-02T06:14:26.457Z,4.40
2024-02-02T06:16:54.443Z,4.40
2024-02-02T06:19:22.536Z,4.40
2024-02-02T06:21:51.140Z,4.40
2024-02-02T06:24:20.517Z,4.40
2024-02-02T06:26:48.490Z,4.40
2024-02-02T06:29:16.472Z,4.40
2024-02-02T06:31:44.401Z,4.40
2024-02-02T06:34:12.458Z,4.40
2024-02-02T06:36:40.564Z,4.40
2024-02-02T06:39:08.955Z,4.40
2024-02-02T06:41:38.285Z,4.40
2024-02-02T06:44:06.441Z,4.40
2024-02-02T06:46:34.539Z,4.40
2024-02-02T06:49:02.592Z,4.50
2024-02-02T06:51:30.651Z,4.40
2024-02-02T06:53:58.671Z,4.40
2024-02-02T06:56:39.534Z,4.50
2024-02-02T06:59:09.253Z,4.50
2024-02-02T07:01:38.256Z,4.40
2024-02-02T07:04:09.853Z,4.50
2024-02-02T07:06:39.475Z,4.50
2024-02-02T07:09:23.657Z,4.50
2024-02-02T07:12:01.569Z,4.50
2024-02-02T07:14:47.953Z,4.50
2024-02-02T07:17:39.447Z,4.50
2024-02-02T07:20:16.563Z,4.50
2024-02-02T07:22:45.116Z,4.50
2024-02-02T07:25:15.704Z,4.50
2024-02-02T07:27:55.742Z,4.50
2024-02-02T07:30:52.265Z,4.50
2024-02-02T07:33:25.562Z,4.50
2024-02-02T07:35:54.692Z,4.50
2024-02-02T07:38:43.790Z,4.50
2024-02-02T07:41:13.872Z,4.60
2024-02-02T07:43:43.482Z,4.60
2024-02-02T07:46:14.379Z,4.60
2024-02-02T07:48:44.604Z,4.50
2024-02-02T07:51:13.172Z,4.60
2024-02-02T07:53:41.417Z,4.60
2024-02-02T07:56:10.458Z,4.60
2024-02-02T07:58:38.592Z,4.60
2024-02-02T08:01:08.972Z,4.60
2024-02-02T08:03:37.051Z,4.60
2024-02-02T08:06:05.717Z,4.60
2024-02-02T08:08:36.997Z,4.70
2024-02-02T08:11:05.215Z,4.70
2024-02-02T08:13:33.182Z,4.70
2024-02-02T08:16:01.415Z,4.70
2024-02-02T08:18:31.555Z,4.70
2024-02-02T08:20:59.623Z,4.70
2024-02-02T08:23:27.599Z,4.80
2024-02-02T08:25:55.702Z,4.80
2024-02-02T08:28:23.756Z,4.80
2024-02-02T08:30:51.925Z,4.90
2024-02-02T08:33:20.166Z,4.90
2024-02-02T08:35:49.664Z,4.90
2024-02-02T08:38:18.961Z,4.90
2024-02-02T08:40:49.217Z,4.90
2024-02-02T08:43:18.549Z,4.90
2024-02-02T08:46:11.861Z,4.90
2024-02-02T08:48:45.712Z,4.90
2024-02-02T08:51:48.215Z,4.90
2024-02-02T08:54:37.557Z,5.00
2024-02-02T08:57:35.075Z,5.00
2024-02-02T09:00:13.423Z,5.00
2024-02-02T09:02:54.940Z,5.10
2024-02-02T09:05:24.163Z,5.20
2024-02-02T09:07:54.129Z,5.20
2024-02-02T09:10:58.408Z,5.20
2024-02-02T09:13:31.096Z,5.20
2024-02-02T09:15:59.255Z,5.30
2024-02-02T09:18:34.736Z,5.30
2024-02-02T09:21:03.954Z,5.30
2024-02-02T09:23:33.695Z,5.30
2024-02-02T09:26:02.058Z,5.40
2024-02-02T09:28:44.205Z,5.40
2024-02-02T09:31:17.818Z,5.40
2024-02-02T09:33:51.586Z,5.40
2024-02-02T09:36:21.290Z,5.40
2024-02-02T09:38:59.321Z,5.40
2024-02-02T09:41:55.754Z,5.40
2024-02-02T09:44:45.374Z,5.40
2024-02-02T09:47:29.573Z,5.40
2024-02-02T09:50:11.562Z,5.50
2024-02-02T09:52:51.682Z,5.50
2024-02-02T09:55:24.793Z,5.50
2024-02-02T09:57:59.321Z,5.60
2024-02-02T10:00:43.259Z,5.70
2024-02-02T10:03:22.128Z,5.70
2024-02-02T10:06:07.522Z,5.70
2024-02-02T10:08:53.484Z,5.70
2024-02-02T10:11:38.987Z,5.70
2024-02-02T10:14:26.084Z,5.70
2024-02-02T10:17:04.311Z,5.60
2024-02-02T10:19:57.756Z,5.70
2024-02-02T10:22:48.729Z,5.60
2024-02-02T10:25:32.420Z,5.70
2024-02-02T10:28:18.816Z,5.70
2024-02-02T10:30:58.374Z,5.70
2024-02-02T10:33:36.618Z,5.60
2024-02-02T10:36:13.897Z,5.70
2024-02-02T10:39:06.069Z,5.70
2024-02-02T10:41:42.177Z,5.70
2024-02-02T10:44:19.696Z,5.70
2024-02-02T10:46:58.110Z,5.60
2024-02-02T10:49:41.602Z,5.70
2024-02-02T10:52:22.000Z,5.80
2024-02-02T10:55:05.215Z,5.80
2024-02-02T10:57:38.501Z,5.80
2024-02-02T11:00:12.705Z,5.90
2024-02-02T11:03:10.452Z,5.80
2024-02-02T11:05:43.466Z,5.80
2024-02-02T11:08:17.329Z,5.80
2024-02-02T11:10:53.959Z,5.80
2024-02-02T11:13:32.544Z,5.80
2024-02-02T11:16:12.795Z,5.80
2024-02-02T11:18:57.036Z,6.00
2024-02-02T11:21:48.928Z,6.60
2024-02-02T11:24:23.621Z,6.60
2024-02-02T11:26:58.445Z,7.00
2024-02-02T11:29:38.474Z,7.20
2024-02-02T11:32:23.096Z,7.50
2024-02-02T11:34:57.399Z,7.50
2024-02-02T11:37:35.068Z,7.50
2024-02-02T11:40:09.328Z,7.50
2024-02-02T11:42:39.893Z,7.60
2024-02-02T11:45:12.851Z,7.70
2024-02-02T11:47:48.200Z,7.90
2024-02-02T11:50:19.384Z,7.90
2024-02-02T11:52:56.743Z,7.90
2024-02-02T11:55:29.342Z,7.90
2024-02-02T11:58:04.315Z,8.00
2024-02-02T12:00:47.041Z,8.00
2024-02-02T12:03:30.403Z,7.90
2024-02-02T12:06:09.970Z,8.10
2024-02-02T12:08:48.236Z,8.10
2024-02-02T12:11:23.236Z,8.10
2024-02-02T12:14:00.092Z,8.00
2024-02-02T12:16:28.110Z,8.00
2024-02-02T12:18:56.137Z,8.10
2024-02-02T12:21:24.628Z,8.00
2024-02-02T12:23:54.007Z,8.10
2024-02-02T12:26:23.820Z,8.00
2024-02-02T12:28:53.097Z,8.00
2024-02-02T12:31:21.151Z,8.10
2024-02-02T12:33:49.314Z,8.10
2024-02-02T12:36:19.305Z,8.30
2024-02-02T12:38:47.865Z,8.30
2024-02-02T12:41:17.263Z,8.10
2024-02-02T12:43:48.024Z,8.30
2024-02-02T12:46:16.425Z,8.30
2024-02-02T12:48:44.566Z,8.20
2024-02-02T12:51:12.649Z,8.30
2024-02-02T12:53:41.845Z,8.30
2024-02-02T12:56:10.254Z,8.30
2024-02-02T12:58:39.633Z,8.40
2024-02-02T13:01:08.118Z,8.30
2024-02-02T13:03:43.666Z,8.40
2024-02-02T13:06:13.156Z,8.40
2024-02-02T13:08:42.160Z,8.40
2024-02-02T13:11:20.905Z,8.40
2024-02-02T13:13:50.222Z,8.40
2024-02-02T13:16:25.620Z,8.40
2024-02-02T13:18:54.234Z,8.40
2024-02-02T13:21:28.152Z,8.40
2024-02-02T13:23:57.327Z,8.50
2024-02-02T13:26:37.522Z,8.50
2024-02-02T13:29:08.845Z,8.50
2024-02-02T13:31:38.288Z,8.50
2024-02-02T13:34:06.783Z,8.40
2024-02-02T13:36:40.537Z,8.50
2024-02-02T13:39:19.641Z,8.50
2024-02-02T13:41:48.893Z,8.40
2024-02-02T13:44:24.319Z,8.50
2024-02-02T13:46:54.052Z,8.40
2024-02-02T13:49:25.697Z,8.30
2024-02-02T13:51:54.183Z,8.40
2024-02-02T13:54:23.260Z,8.40
2024-02-02T13:56:53.065Z,8.40
2024-02-02T13:59:22.513Z,8.40
2024-02-02T14:01:52.917Z,8.40
2024-02-02T14:04:26.367Z,8.40
2024-02-02T14:06:54.559Z,8.40
2024-02-02T14:09:23.338Z,8.40
2024-02-02T14:11:52.148Z,8.40
2024-02-02T14:14:27.398Z,8.50
2024-02-02T14:17:03.080Z,8.40
2024-02-02T14:19:31.181Z,8.40
2024-02-02T14:22:06.806Z,8.40
2024-02-02T14:24:35.498Z,8.40
2024-02-02T14:27:04.578Z,8.40
2024-02-02T14:29:43.221Z,8.40
2024-02-02T14:32:12.449Z,8.40
2024-02-02T14:34:40.585Z,8.30
2024-02-02T14:37:10.960Z,8.30
2024-02-02T14:39:38.920Z,8.40
2024-02-02T14:42:10.110Z,8.40
2024-02-02T14:44:38.569Z,8.30
2024-02-02T14:47:10.250Z,8.30
2024-02-02T14:49:38.310Z,8.30
2024-02-02T14:52:07.023Z,8.20
2024-02-02T14:54:35.076Z,8.30
2024-02-02T14:57:03.245Z,8.40
2024-02-02T14:59:40.594Z,8.30
2024-02-02T15:02:10.365Z,8.30
2024-02-02T15:04:38.395Z,8.30
2024-02-02T15:07:06.854Z,8.30
2024-02-02T15:09:35.150Z,8.30
2024-02-02T15:12:05.554Z,8.30
2024-02-02T15:14:35.563Z,8.30
2024-02-02T15:17:04.394Z,8.30
2024-02-02T15:19:33.909Z,8.30
2024-02-02T15:22:02.194Z,8.20
2024-02-02T15:24:31.545Z,8.20
2024-02-02T15:26:59.965Z,8.20
2024-02-02T15:29:27.977Z,8.30
2024-02-02T15:31:55.916Z,8.30
2024-02-02T15:34:24.659Z,8.30
2024-02-02T15:36:55.112Z,8.30
2024-02-02T15:39:30.540Z,8.20
2024-02-02T15:42:05.888Z,8.20
2024-02-02T15:44:33.885Z,8.20
2024-02-02T15:47:04.635Z,8.20
2024-02-02T15:49:33.000Z,8.20
2024-02-02T15:52:03.448Z,8.20
2024-02-02T15:54:31.433Z,8.20
2024-02-02T15:56:59.399Z,8.20
2024-02-02T15:59:27.369Z,8.20
2024-02-02T16:01:55.398Z,8.20
2024-02-02T16:04:23.602Z,8.20
2024-02-02T16:07:04.900Z,8.10
2024-02-02T16:09:38.022Z,8.10
2024-02-02T16:12:07.640Z,8.20
2024-02-02T16:14:35.745Z,8.10
2024-02-02T16:17:04.079Z,8.10
2024-02-02T16:19:32.170Z,8.10
2024-02-02T16:22:00.360Z,8.10
2024-02-02T16:24:29.788Z,8.10
2024-02-02T16:26:58.396Z,8.10
2024-02-02T16:29:26.379Z,8.10
2024-02-02T16:31:54.344Z,8.10
2024-02-02T16:34:22.416Z,8.10
2024-02-02T16:36:50.604Z,8.00
2024-02-02T16:39:18.703Z,8.10
2024-02-02T16:41:48.084Z,8.00
2024-02-02T16:44:17.095Z,8.10
2024-02-02T16:46:45.758Z,8.10
2024-02-02T16:49:13.876Z,8.00
2024-02-02T16:51:42.830Z,8.10
2024-02-02T16:54:11.341Z,8.10
2024-02-02T16:56:39.423Z,8.10
2024-02-02T16:59:10.493Z,8.00
2024-02-02T17:01:38.500Z,8.10
2024-02-02T17:04:06.763Z,8.00
2024-02-02T17:06:35.405Z,8.00
2024-02-02T17:09:04.224Z,8.00
2024-02-02T17:11:32.178Z,8.00
2024-02-02T17:14:00.105Z,8.00
2024-02-02T17:16:29.560Z,8.00
2024-02-02T17:18:57.607Z,8.00
2024-02-02T17:21:25.734Z,8.00
2024-02-02T17:23:54.070Z,8.10
2024-02-02T17:26:22.159Z,8.00
2024-02-02T17:28:51.685Z,7.90
2024-02-02T17:31:23.090Z,7.90
2024-02-02T17:33:52.595Z,7.80
2024-02-02T17:36:20.654Z,7.80
2024-02-02T17:38:49.456Z,7.80
2024-02-02T17:41:18.421Z,7.80
2024-02-02T17:43:47.498Z,7.80
2024-02-02T17:46:16.367Z,7.80
2024-02-02T17:48:44.488Z,7.70
2024-02-02T17:51:19.286Z,7.80
2024-02-02T17:53:47.603Z,7.70
2024-02-02T17:56:15.856Z,7.70
2024-02-02T17:58:43.816Z,7.60
2024-02-02T18:01:12.808Z,7.60
2024-02-02T18:03:40.926Z,7.60
2024-02-02T18:06:09.100Z,7.60
2024-02-02T18:08:38.520Z,7.60
2024-02-02T18:11:08.157Z,7.60
2024-02-02T18:13:36.124Z,7.60
2024-02-02T18:16:04.542Z,7.60
2024-02-02T18:18:32.671Z,7.60
2024-02-02T18:21:00.731Z,7.50
2024-02-02T18:23:32.472Z,7.50
2024-02-02T18:26:02.275Z,7.50
2024-02-02T18:28:30.253Z,7.50
2024-02-02T18:30:58.207Z,7.50
2024-02-02T18:33:26.396Z,7.50
2024-02-02T18:35:54.454Z,7.50
2024-02-02T18:38:22.392Z,7.50
2024-02-02T18:40:51.447Z,7.50
2024-02-02T18:43:20.924Z,7.50
2024-02-02T18:45:49.033Z,7.50
2024-02-02T18:48:17.254Z,7.50
2024-02-02T18:50:45.253Z,7.50
2024-02-02T18:53:13.230Z,7.50
2024-02-02T18:55:41.202Z,7.40
2024-02-02T18:58:09.137Z,7.50
2024-02-02T19:00:38.495Z,7.50
2024-02-02T19:03:08.463Z,7.40
2024-02-02T19:05:37.638Z,7.50
2024-02-02T19:08:06.340Z,7.40
2024-02-02T19:10:34.286Z,7.40
2024-02-02T19:13:02.465Z,7.30
2024-02-02T19:15:30.536Z,7.40
2024-02-02T19:18:03.285Z,7.30
2024-02-02T19:20:32.070Z,7.30
2024-02-02T19:23:00.031Z,7.30
2024-02-02T19:25:28.009Z,7.30
2024-02-02T19:27:56.034Z,7.20
2024-02-02T19:30:24.162Z,7.20
2024-02-02T19:32:52.941Z,7.20
2024-02-02T19:35:23.108Z,7.20
2024-02-02T19:37:53.724Z,7.20
2024-02-02T19:40:21.667Z,7.10
2024-02-02T19:42:49.639Z,7.10
2024-02-02T19:45:17.666Z,7.10
2024-02-02T19:47:47.296Z,7.00
2024-02-02T19:50:15.542Z,7.10
2024-02-02T19:52:44.908Z,7.10
2024-02-02T19:55:13.418Z,7.00
2024-02-02T19:57:41.405Z,7.00
2024-02-02T20:00:14.726Z,6.90
2024-02-02T20:02:43.057Z,6.90
2024-02-02T20:05:11.365Z,6.90
2024-02-02T20:07:39.483Z,7.00
2024-02-02T20:10:10.488Z,6.90
2024-02-02T20:12:38.669Z,6.80
2024-02-02T20:15:07.683Z,6.80
2024-02-02T20:17:35.914Z,6.80
2024-02-02T20:20:04.150Z,6.80
2024-02-02T20:22:32.153Z,6.80
2024-02-02T20:25:00.462Z,6.80
2024-02-02T20:27:30.388Z,6.80
2024-02-02T20:29:58.386Z,6.80
2024-02-02T20:32:26.346Z,6.70
2024-02-02T20:34:54.557Z,6.70
2024-02-02T20:37:22.618Z,6.70
2024-02-02T20:39:50.809Z,6.70
2024-02-02T20:42:18.901Z,6.70
2024-02-02T20:44:48.239Z,6.70
2024-02-02T20:47:16.461Z,6.70
2024-02-02T20:49:47.325Z,6.70
2024-02-02T20:52:17.321Z,6.70
2024-02-02T20:54:45.747Z,6.70
2024-02-02T20:57:13.768Z,6.70
2024-02-02T20:59:42.298Z,6.60
2024-02-02T21:02:11.655Z,6.60
2024-02-02T21:04:39.744Z,6.70
2024-02-02T21:07:12.125Z,6.60
2024-02-02T21:09:40.551Z,6.70
2024-02-02T21:12:11.189Z,6.70
2024-02-02T21:14:39.182Z,6.60
2024-02-02T21:17:07.134Z,6.60
2024-02-02T21:19:36.576Z,6.60
2024-02-02T21:22:06.965Z,6.60
2024-02-02T21:24:35.250Z,6.50
2024-02-02T21:27:04.281Z,6.60
2024-02-02T21:29:32.299Z,6.50
2024-02-02T21:32:00.255Z,6.50
2024-02-02T21:34:28.313Z,6.60
2024-02-02T21:36:57.788Z,6.50
2024-02-02T21:39:25.847Z,6.50
2024-02-02T21:41:53.833Z,6.50
2024-02-02T21:44:24.202Z,6.50
2024-02-02T21:46:52.689Z,6.50
2024-02-02T21:49:20.785Z,6.40
2024-02-02T21:51:48.857Z,6.50
2024-02-02T21:54:18.681Z,6.50
2024-02-02T21:56:46.680Z,6.50
2024-02-02T21:59:14.830Z,6.50
2024-02-02T22:01:42.887Z,6.40
2024-02-02T22:04:13.031Z,6.50
2024-02-02T22:06:41.346Z,6.50
2024-02-02T22:09:09.570Z,6.40
2024-02-02T22:11:39.075Z,6.40
2024-02-02T22:14:07.028Z,6.40
2024-02-02T22:16:34.965Z,6.40
2024-02-02T22:19:03.607Z,6.40
2024-02-02T22:21:31.964Z,6.40
2024-02-02T22:24:00.060Z,6.40
2024-02-02T22:26:28.232Z,6.30
2024-02-02T22:28:57.571Z,6.40
2024-02-02T22:31:25.645Z,6.40
2024-02-02T22:33:53.827Z,6.30
2024-02-02T22:36:25.270Z,6.30
2024-02-02T22:38:56.052Z,6.30
2024-02-02T22:41:32.730Z,6.30
2024-02-02T22:44:04.150Z,6.30
2024-02-02T22:46:32.813Z,6.30
2024-02-02T22:49:01.549Z,6.30
2024-02-02T22:51:29.733Z,6.30
2024-02-02T22:53:57.758Z,6.20
2024-02-02T22:56:25.832Z,6.20
2024-02-02T23:01:30.621Z,6.30
2024-02-02T23:03:58.660Z,6.20
2024-02-02T23:06:26.777Z,6.20
2024-02-02T23:08:54.787Z,6.10
2024-02-02T23:11:22.825Z,6.10
2024-02-02T23:13:51.110Z,6.10
2024-02-02T23:16:19.176Z,6.10
2024-02-02T23:18:49.068Z,6.00
2024-02-02T23:21:17.306Z,6.00
2024-02-02T23:23:45.317Z,5.90
2024-02-02T23:26:14.218Z,6.00
2024-02-02T23:28:42.931Z,6.00
2024-02-02T23:31:10.936Z,6.00
2024-02-02T23:33:38.925Z,6.00
2024-02-02T23:36:09.317Z,6.00
2024-02-02T23:38:37.327Z,5.90
2024-02-02T23:41:05.907Z,5.90
2024-02-02T23:43:34.108Z,5.90
2024-02-02T23:46:02.766Z,6.00
2024-02-02T23:48:30.954Z,5.90
2024-02-02T23:50:58.972Z,5.90
2024-02-02T23:53:28.363Z,5.80
2024-02-02T23:55:56.318Z,5.80
2024-02-02T23:58:24.942Z,5.80
